createdAt,value
2023-01-28T00:02:14.283Z,3.94
2023-01-28T00:04:42.601Z,3.97
2023-01-28T00:07:10.823Z,4.07
2023-01-28T00:09:40.375Z,4.07
2023-01-28T00:12:08.834Z,4.03
2023-01-28T00:14:37.158Z,4.03
2023-01-28T00:17:06.691Z,4.04
2023-01-28T00:19:36.265Z,4.03
2023-01-28T00:22:04.512Z,4.09
2023-01-28T00:24:33.964Z,4.10
2023-01-28T00:27:02.183Z,4.08
2023-01-28T00:29:30.415Z,4.00
2023-01-28T00:31:58.734Z,4.00
2023-01-28T00:34:30.771Z,3.94
2023-01-28T00:37:00.583Z,3.93
2023-01-28T00:39:28.868Z,3.94
2023-01-28T00:41:57.131Z,3.93
2023-01-28T00:44:26.221Z,3.93
2023-01-28T00:46:54.520Z,3.86
2023-01-28T00:49:23.833Z,3.91
2023-01-28T00:51:52.007Z,3.94
2023-01-28T00:54:21.967Z,3.95
2023-01-28T00:56:50.326Z,3.91
2023-01-28T00:59:18.533Z,3.89
2023-01-28T01:01:46.856Z,3.88
2023-01-28T01:04:26.370Z,3.85
2023-01-28T01:06:54.860Z,3.80
2023-01-28T01:09:24.572Z,3.75
2023-01-28T01:11:52.804Z,3.76
2023-01-28T01:14:21.077Z,3.72
2023-01-28T01:16:49.376Z,3.74
2023-01-28T01:19:20.531Z,3.68
2023-01-28T01:21:50.917Z,3.67
2023-01-28T01:24:19.471Z,3.62
2023-01-28T01:26:49.648Z,3.62
2023-01-28T01:29:18.051Z,3.58
2023-01-28T01:31:46.344Z,3.56
2023-01-28T01:34:15.642Z,3.54
2023-01-28T01:36:44.075Z,3.50
2023-01-28T01:39:13.865Z,3.54
2023-01-28T01:41:42.363Z,3.57
2023-01-28T01:44:43.906Z,3.60
2023-01-28T01:47:14.278Z,3.58
2023-01-28T01:49:42.809Z,3.49
2023-01-28T01:52:15.811Z,3.52
2023-01-28T01:54:48.182Z,3.50
2023-01-28T01:57:23.035Z,3.55
2023-01-28T01:59:51.639Z,3.55
2023-01-28T02:02:21.463Z,3.56
2023-01-28T02:04:49.703Z,3.57
2023-01-28T02:07:20.138Z,3.50
2023-01-28T02:09:48.382Z,3.57
2023-01-28T02:12:20.254Z,3.50
2023-01-28T02:14:53.372Z,3.56
2023-01-28T02:17:23.459Z,3.57
2023-01-28T02:19:57.271Z,3.48
2023-01-28T02:22:56.385Z,3.45
2023-01-28T02:26:09.675Z,3.52
2023-01-28T02:28:45.760Z,3.47
2023-01-28T02:31:22.632Z,3.50
2023-01-28T02:33:56.420Z,3.52
2023-01-28T02:36:36.258Z,3.50
2023-01-28T02:39:10.830Z,3.48
2023-01-28T02:41:44.907Z,3.44
2023-01-28T02:44:14.859Z,3.48
2023-01-28T02:47:00.443Z,3.39
2023-01-28T02:49:32.439Z,3.41
2023-01-28T02:52:50.483Z,3.47
2023-01-28T02:55:31.585Z,3.43
2023-01-28T02:58:07.395Z,3.42
2023-01-28T03:00:47.433Z,3.35
2023-01-28T03:03:21.749Z,3.41
2023-01-28T03:06:06.752Z,3.36
2023-01-28T03:08:57.066Z,3.40
2023-01-28T03:11:44.157Z,3.33
2023-01-28T03:14:30.866Z,3.32
2023-01-28T03:17:19.379Z,3.33
2023-01-28T03:20:06.121Z,3.27
2023-01-28T03:22:56.086Z,3.27
2023-01-28T03:25:45.025Z,3.30
2023-01-28T03:28:36.352Z,3.27
2023-01-28T03:31:27.169Z,3.33
2023-01-28T03:34:18.094Z,3.28
2023-01-28T03:36:51.444Z,3.31
2023-01-28T03:39:40.053Z,3.29
2023-01-28T03:42:13.719Z,3.28
2023-01-28T03:44:55.285Z,3.24
2023-01-28T03:47:25.222Z,3.27
2023-01-28T03:49:56.795Z,3.23
2023-01-28T03:52:27.191Z,3.25
2023-01-28T03:55:13.721Z,3.19
2023-01-28T03:57:44.812Z,3.21
2023-01-28T04:00:17.328Z,3.23
2023-01-28T04:02:46.276Z,3.18
2023-01-28T04:05:20.274Z,3.19
2023-01-28T04:07:51.726Z,3.19
2023-01-28T04:10:40.201Z,3.23
2023-01-28T04:13:34.278Z,3.23
2023-01-28T04:16:03.819Z,3.25
2023-01-28T04:18:39.235Z,3.21
2023-01-28T04:21:09.103Z,3.19
2023-01-28T04:23:37.747Z,3.13
2023-01-28T04:26:06.744Z,3.14
2023-01-28T04:28:34.979Z,3.10
2023-01-28T04:31:03.704Z,3.14
2023-01-28T04:33:54.204Z,3.16
2023-01-28T04:36:46.933Z,3.16
2023-01-28T04:39:43.692Z,3.16
2023-01-28T04:42:38.650Z,3.05
2023-01-28T04:45:12.965Z,3.10
2023-01-28T04:48:13.460Z,3.00
2023-01-28T04:51:00.395Z,3.05
2023-01-28T04:53:58.371Z,3.06
2023-01-28T04:56:30.244Z,3.09
2023-01-28T04:58:58.755Z,3.09
2023-01-28T05:01:27.566Z,3.05
2023-01-28T05:03:55.857Z,3.13
2023-01-28T05:06:27.567Z,3.08
2023-01-28T05:08:59.685Z,2.99
2023-01-28T05:11:28.771Z,2.98
2023-01-28T05:14:02.482Z,3.05
2023-01-28T05:16:36.539Z,3.00
2023-01-28T05:19:05.965Z,3.03
2023-01-28T05:21:38.554Z,3.05
2023-01-28T05:24:13.690Z,2.98
2023-01-28T05:26:41.988Z,2.97
2023-01-28T05:29:10.431Z,3.01
2023-01-28T05:31:39.093Z,3.02
2023-01-28T05:34:07.282Z,2.99
2023-01-28T05:36:35.546Z,3.00
2023-01-28T05:39:11.281Z,3.02
2023-01-28T05:41:40.951Z,3.02
2023-01-28T05:44:09.231Z,3.02
2023-01-28T05:46:55.814Z,2.99
2023-01-28T05:49:42.825Z,2.98
2023-01-28T05:52:31.294Z,2.94
2023-01-28T05:54:59.855Z,2.89
2023-01-28T05:57:29.430Z,2.87
2023-01-28T05:59:57.813Z,2.94
2023-01-28T06:02:26.137Z,2.89
2023-01-28T06:04:57.787Z,2.89
2023-01-28T06:07:26.067Z,2.93
2023-01-28T06:09:54.313Z,2.97
2023-01-28T06:12:23.712Z,2.99
2023-01-28T06:15:13.391Z,2.93
2023-01-28T06:18:02.911Z,2.88
2023-01-28T06:20:34.500Z,2.89
2023-01-28T06:23:03.127Z,2.88
2023-01-28T06:25:31.888Z,2.88
2023-01-28T06:28:04.910Z,2.94
2023-01-28T06:30:34.617Z,2.93
2023-01-28T06:33:02.956Z,2.83
2023-01-28T06:35:31.152Z,2.83
2023-01-28T06:37:59.335Z,2.81
2023-01-28T06:40:27.602Z,2.85
2023-01-28T06:42:55.797Z,2.76
2023-01-28T06:45:24.074Z,2.79
2023-01-28T06:47:53.672Z,2.81
2023-01-28T06:50:21.890Z,2.75
2023-01-28T06:52:50.212Z,2.73
2023-01-28T06:55:18.659Z,2.74
2023-01-28T06:57:46.843Z,2.75
2023-01-28T07:00:16.877Z,2.71
2023-01-28T07:02:45.503Z,2.67
2023-01-28T07:05:15.290Z,2.70
2023-01-28T07:07:43.535Z,2.71
2023-01-28T07:10:12.774Z,2.76
2023-01-28T07:12:41.443Z,2.79
2023-01-28T07:15:11.154Z,2.80
2023-01-28T07:17:41.380Z,2.71
2023-01-28T07:20:12.355Z,2.74
2023-01-28T07:22:43.624Z,2.75
2023-01-28T07:25:12.845Z,2.74
2023-01-28T07:27:41.382Z,2.83
2023-01-28T07:30:10.977Z,2.84
2023-01-28T07:32:39.499Z,2.85
2023-01-28T07:35:08.902Z,2.78
2023-01-28T07:37:37.328Z,2.76
2023-01-28T07:40:08.254Z,2.74
2023-01-28T07:42:36.501Z,2.75
2023-01-28T07:45:07.686Z,2.69
2023-01-28T07:47:35.994Z,2.65
2023-01-28T07:50:04.704Z,2.76
2023-01-28T07:52:38.196Z,2.66
2023-01-28T07:55:08.672Z,2.71
2023-01-28T07:57:36.880Z,2.74
2023-01-28T08:00:05.769Z,2.70
2023-01-28T08:02:40.434Z,2.80
2023-01-28T08:05:09.728Z,2.81
2023-01-28T08:07:38.022Z,2.79
2023-01-28T08:10:08.683Z,2.84
2023-01-28T08:12:37.219Z,2.86
2023-01-28T08:15:06.493Z,2.87
2023-01-28T08:17:34.905Z,2.81
2023-01-28T08:20:03.227Z,2.78
2023-01-28T08:22:31.453Z,2.82
2023-01-28T08:24:59.654Z,2.72
2023-01-28T08:27:29.384Z,2.75
2023-01-28T08:29:57.645Z,2.82
2023-01-28T08:32:25.864Z,2.81
2023-01-28T08:34:54.058Z,2.81
2023-01-28T08:37:22.337Z,2.86
2023-01-28T08:39:50.912Z,2.91
2023-01-28T08:42:19.147Z,2.93
2023-01-28T08:44:49.159Z,2.90
2023-01-28T08:47:17.369Z,2.86
2023-01-28T08:49:45.664Z,2.95
2023-01-28T08:52:13.866Z,2.95
2023-01-28T08:54:42.087Z,3.04
2023-01-28T08:57:10.279Z,3.13
2023-01-28T08:59:44.945Z,3.08
2023-01-28T09:02:30.329Z,3.12
2023-01-28T09:05:01.267Z,3.02
2023-01-28T09:07:29.664Z,3.02
2023-01-28T09:09:57.967Z,2.98
2023-01-28T09:12:27.126Z,3.01
2023-01-28T09:14:55.384Z,3.14
2023-01-28T09:17:25.229Z,3.27
2023-01-28T09:19:53.469Z,3.20
2023-01-28T09:22:21.884Z,3.13
2023-01-28T09:24:50.096Z,3.14
2023-01-28T09:27:18.537Z,3.15
2023-01-28T09:29:46.781Z,3.08
2023-01-28T09:32:15.059Z,3.13
2023-01-28T09:34:45.484Z,3.16
2023-01-28T09:37:14.727Z,3.27
2023-01-28T09:39:43.004Z,3.25
2023-01-28T09:42:48.623Z,3.29
2023-01-28T09:45:18.812Z,3.16
2023-01-28T09:47:50.582Z,3.26
2023-01-28T09:50:27.537Z,3.31
2023-01-28T09:53:01.021Z,3.42
2023-01-28T09:55:35.290Z,3.45
2023-01-28T09:58:06.419Z,3.41
2023-01-28T10:00:43.506Z,3.56
2023-01-28T10:03:29.998Z,3.59
2023-01-28T10:06:10.535Z,3.70
2023-01-28T10:08:58.284Z,3.78
2023-01-28T10:11:38.125Z,3.87
2023-01-28T10:14:10.603Z,3.93
2023-01-28T10:16:42.738Z,4.04
2023-01-28T10:19:18.780Z,3.99
2023-01-28T10:21:53.463Z,4.19
2023-01-28T10:24:28.892Z,4.15
2023-01-28T10:26:58.096Z,4.17
2023-01-28T10:29:30.351Z,4.06
2023-01-28T10:32:03.954Z,4.19
2023-01-28T10:34:32.597Z,4.21
2023-01-28T10:37:02.356Z,4.13
2023-01-28T10:39:31.295Z,4.13
2023-01-28T10:41:59.657Z,4.27
2023-01-28T10:44:35.684Z,4.36
2023-01-28T10:47:10.122Z,4.34
2023-01-28T10:49:45.100Z,4.47
2023-01-28T10:52:16.468Z,4.46
2023-01-28T10:54:44.681Z,4.44
2023-01-28T10:57:17.786Z,4.34
2023-01-28T10:59:46.857Z,4.38
2023-01-28T11:02:32.275Z,4.43
2023-01-28T11:05:07.291Z,4.50
2023-01-28T11:07:36.940Z,4.52
2023-01-28T11:10:24.567Z,4.43
2023-01-28T11:12:56.833Z,4.45
2023-01-28T11:15:25.050Z,4.62
2023-01-28T11:17:58.061Z,4.37
2023-01-28T11:20:29.444Z,4.54
2023-01-28T11:22:59.469Z,4.60
2023-01-28T11:25:32.273Z,4.54
2023-01-28T11:28:03.189Z,4.33
2023-01-28T11:30:34.018Z,4.30
2023-01-28T11:33:09.292Z,4.24
2023-01-28T11:35:37.740Z,4.52
2023-01-28T11:38:19.249Z,4.90
2023-01-28T11:40:52.945Z,5.06
2023-01-28T11:43:23.189Z,4.90
2023-01-28T11:45:58.396Z,4.84
2023-01-28T11:48:38.770Z,4.60
2023-01-28T11:51:20.028Z,4.62
2023-01-28T11:54:01.308Z,4.59
2023-01-28T11:56:47.931Z,4.66
2023-01-28T11:59:29.397Z,4.67
2023-01-28T12:02:05.013Z,4.86
2023-01-28T12:04:52.138Z,4.88
2023-01-28T12:07:38.469Z,4.91
2023-01-28T12:10:20.981Z,5.01
2023-01-28T12:13:11.463Z,4.91
2023-01-28T12:16:03.459Z,4.96
2023-01-28T12:19:04.585Z,5.07
2023-01-28T12:21:48.373Z,5.02
2023-01-28T12:24:30.309Z,4.79
2023-01-28T12:27:09.175Z,5.09
2023-01-28T12:29:47.614Z,5.09
2023-01-28T12:32:39.263Z,5.09
2023-01-28T12:35:25.662Z,5.07
2023-01-28T12:38:03.045Z,5.13
2023-01-28T12:40:55.946Z,5.31
2023-01-28T12:43:39.247Z,5.11
2023-01-28T12:46:14.137Z,5.16
2023-01-28T12:48:47.130Z,5.34
2023-01-28T12:51:18.924Z,5.64
2023-01-28T12:53:52.427Z,5.89
2023-01-28T12:56:24.745Z,5.89
2023-01-28T12:58:59.309Z,5.81
2023-01-28T13:01:36.242Z,6.40
2023-01-28T13:04:11.004Z,6.38
2023-01-28T13:06:44.583Z,6.06
2023-01-28T13:09:17.855Z,5.96
2023-01-28T13:11:48.186Z,5.95
2023-01-28T13:14:19.004Z,5.90
2023-01-28T13:16:47.300Z,5.80
2023-01-28T13:19:25.803Z,5.83
2023-01-28T13:21:54.033Z,5.61
2023-01-28T13:24:25.057Z,5.50
2023-01-28T13:26:55.635Z,5.40
2023-01-28T13:29:32.875Z,5.24
2023-01-28T13:32:03.327Z,5.21
2023-01-28T13:34:36.184Z,5.15
2023-01-28T13:37:16.844Z,5.13
2023-01-28T13:39:50.827Z,5.06
2023-01-28T13:42:27.498Z,5.21
2023-01-28T13:44:57.870Z,5.30
2023-01-28T13:47:32.179Z,5.39
2023-01-28T13:50:04.772Z,5.41
2023-01-28T13:52:37.743Z,5.28
2023-01-28T13:55:25.974Z,5.26
2023-01-28T13:58:34.341Z,4.98
2023-01-28T14:01:27.862Z,4.94
2023-01-28T14:04:26.335Z,4.77
2023-01-28T14:07:12.395Z,4.61
2023-01-28T14:10:05.831Z,4.51
2023-01-28T14:13:06.196Z,4.47
2023-01-28T14:15:50.510Z,4.44
2023-01-28T14:18:27.278Z,4.39
2023-01-28T14:20:58.308Z,4.61
2023-01-28T14:23:31.142Z,4.67
2023-01-28T14:26:19.679Z,4.71
2023-01-28T14:28:55.283Z,4.58
2023-01-28T14:31:28.882Z,4.45
2023-01-28T14:34:07.174Z,4.41
2023-01-28T14:36:39.011Z,4.57
2023-01-28T14:39:12.704Z,4.58
2023-01-28T14:41:44.257Z,4.60
2023-01-28T14:44:19.775Z,4.63
2023-01-28T14:46:56.105Z,4.91
2023-01-28T14:49:32.434Z,5.05
2023-01-28T14:52:19.841Z,5.30
2023-01-28T14:55:01.523Z,5.27
2023-01-28T14:57:45.511Z,5.13
2023-01-28T15:00:24.987Z,5.00
2023-01-28T15:02:53.370Z,4.74
2023-01-28T15:05:25.223Z,4.59
2023-01-28T15:07:53.860Z,4.56
2023-01-28T15:10:25.600Z,4.43
2023-01-28T15:12:57.432Z,4.36
2023-01-28T15:15:31.747Z,4.35
2023-01-28T15:18:03.474Z,4.37
2023-01-28T15:20:33.676Z,4.36
2023-01-28T15:23:02.965Z,4.32
2023-01-28T15:25:31.466Z,4.17
2023-01-28T15:28:02.644Z,4.13
2023-01-28T15:30:32.834Z,4.18
2023-01-28T15:33:03.821Z,4.18
2023-01-28T15:35:33.943Z,4.20
2023-01-28T15:38:03.413Z,4.23
2023-01-28T15:40:32.565Z,4.22
2023-01-28T15:43:00.805Z,4.16
2023-01-28T15:45:30.525Z,4.17
2023-01-28T15:48:08.861Z,4.21
2023-01-28T15:50:38.504Z,4.15
2023-01-28T15:53:11.117Z,4.15
2023-01-28T15:55:42.213Z,4.03
2023-01-28T15:58:21.875Z,4.05
2023-01-28T16:00:50.610Z,3.94
2023-01-28T16:03:21.890Z,3.84
2023-01-28T16:06:00.916Z,3.75
2023-01-28T16:08:33.957Z,3.83
2023-01-28T16:11:02.463Z,3.87
2023-01-28T16:13:34.015Z,3.80
2023-01-28T16:16:05.375Z,3.88
2023-01-28T16:18:40.961Z,3.91
2023-01-28T16:21:13.022Z,4.05
2023-01-28T16:23:41.582Z,4.09
2023-01-28T16:26:22.761Z,4.09
2023-01-28T16:28:51.063Z,4.07
2023-01-28T16:31:19.658Z,4.05
2023-01-28T16:33:48.165Z,4.05
2023-01-28T16:36:19.398Z,4.00
2023-01-28T16:38:48.841Z,4.02
2023-01-28T16:41:25.402Z,4.00
2023-01-28T16:43:53.722Z,3.98
2023-01-28T16:46:22.071Z,3.98
2023-01-28T16:48:50.328Z,3.98
2023-01-28T16:51:20.943Z,4.01
2023-01-28T16:53:50.508Z,4.00
2023-01-28T16:56:44.041Z,3.90
2023-01-28T16:59:11.632Z,3.88
2023-01-28T17:01:40.043Z,3.88
2023-01-28T17:04:12.300Z,3.78
2023-01-28T17:06:44.545Z,3.70
2023-01-28T17:09:14.974Z,3.65
2023-01-28T17:11:43.559Z,3.59
2023-01-28T17:14:12.435Z,3.53
2023-01-28T17:16:40.877Z,3.49
2023-01-28T17:19:09.220Z,3.46
2023-01-28T17:21:37.980Z,3.29
2023-01-28T17:24:08.711Z,3.12
2023-01-28T17:26:38.137Z,2.91
2023-01-28T17:29:07.129Z,2.79
2023-01-28T17:31:36.638Z,2.65
2023-01-28T17:34:06.980Z,2.56
2023-01-28T17:36:35.383Z,2.50
2023-01-28T17:39:03.733Z,2.49
2023-01-28T17:41:33.354Z,2.54
2023-01-28T17:44:01.584Z,2.54
2023-01-28T17:46:29.821Z,2.58
2023-01-28T17:48:58.077Z,2.69
2023-01-28T17:51:26.446Z,2.72
2023-01-28T17:53:54.839Z,2.72
2023-01-28T17:56:25.787Z,2.74
2023-01-28T17:58:56.854Z,2.76
2023-01-28T18:01:26.621Z,2.79
2023-01-28T18:03:55.115Z,2.90
2023-01-28T18:06:23.857Z,2.96
2023-01-28T18:08:52.183Z,2.98
2023-01-28T18:11:21.285Z,2.85
2023-01-28T18:13:49.589Z,2.82
2023-01-28T18:16:20.980Z,2.81
2023-01-28T18:18:50.148Z,2.84
2023-01-28T18:21:23.032Z,2.82
2023-01-28T18:23:54.032Z,2.79
2023-01-28T18:26:23.849Z,2.82
2023-01-28T18:28:52.204Z,2.73
2023-01-28T18:31:22.129Z,2.70
2023-01-28T18:33:50.694Z,2.73
2023-01-28T18:36:18.978Z,2.71
2023-01-28T18:38:47.258Z,2.56
2023-01-28T18:41:15.771Z,2.46
2023-01-28T18:43:44.172Z,2.31
2023-01-28T18:46:13.861Z,2.22
2023-01-28T18:48:43.564Z,2.16
2023-01-28T18:51:28.858Z,2.12
2023-01-28T18:53:59.065Z,2.09
2023-01-28T18:56:27.579Z,1.98
2023-01-28T18:58:59.675Z,1.86
2023-01-28T19:01:29.068Z,1.79
2023-01-28T19:03:59.641Z,1.69
2023-01-28T19:06:30.214Z,1.61
2023-01-28T19:08:59.930Z,1.55
2023-01-28T19:11:30.476Z,1.49
2023-01-28T19:13:59.016Z,1.53
2023-01-28T19:16:27.573Z,1.38
2023-01-28T19:18:59.085Z,1.32
2023-01-28T19:21:28.455Z,1.22
2023-01-28T19:23:57.752Z,1.12
2023-01-28T19:26:26.513Z,1.10
2023-01-28T19:28:55.237Z,1.18
2023-01-28T19:31:24.808Z,1.16
2023-01-28T19:33:55.729Z,1.08
2023-01-28T19:36:26.874Z,0.98
2023-01-28T19:38:58.108Z,0.90
2023-01-28T19:41:26.599Z,0.82
2023-01-28T19:43:55.316Z,0.79
2023-01-28T19:46:23.929Z,0.80
2023-01-28T19:48:52.439Z,0.73
2023-01-28T19:51:21.492Z,0.66
2023-01-28T19:53:52.929Z,0.60
2023-01-28T19:56:22.999Z,0.60
2023-01-28T19:58:51.371Z,0.61
2023-01-28T20:01:21.548Z,0.54
2023-01-28T20:03:52.721Z,0.53
2023-01-28T20:06:21.181Z,0.55
2023-01-28T20:08:54.991Z,0.58
2023-01-28T20:11:23.734Z,0.58
2023-01-28T20:13:53.038Z,0.46
2023-01-28T20:16:23.536Z,0.36
2023-01-28T20:18:52.955Z,0.38
2023-01-28T20:21:21.955Z,0.37
2023-01-28T20:23:51.801Z,0.35
2023-01-28T20:26:23.916Z,0.36
2023-01-28T20:28:52.828Z,0.19
2023-01-28T20:31:21.626Z,0.20
2023-01-28T20:33:49.967Z,0.15
2023-01-28T20:36:18.188Z,0.22
2023-01-28T20:38:48.344Z,0.22
2023-01-28T20:41:18.513Z,0.19
2023-01-28T20:43:49.357Z,0.19
2023-01-28T20:46:20.119Z,0.14
2023-01-28T20:48:48.758Z,0.08
2023-01-28T20:51:18.383Z,0.05
2023-01-28T20:53:47.219Z,0.02
2023-01-28T20:56:17.171Z,-0.10
2023-01-28T20:58:45.422Z,-0.08
2023-01-28T21:01:20.441Z,-0.08
2023-01-28T21:03:49.114Z,-0.15
2023-01-28T21:06:17.833Z,-0.17
2023-01-28T21:08:46.401Z,-0.20
2023-01-28T21:11:15.198Z,-0.16
2023-01-28T21:13:43.405Z,-0.16
2023-01-28T21:16:11.808Z,-0.22
2023-01-28T21:18:41.578Z,-0.30
2023-01-28T21:21:14.776Z,-0.34
2023-01-28T21:23:43.119Z,-0.38
2023-01-28T21:26:11.934Z,-0.37
2023-01-28T21:28:40.171Z,-0.41
2023-01-28T21:31:10.225Z,-0.44
2023-01-28T21:33:40.950Z,-0.41
2023-01-28T21:36:10.835Z,-0.41
2023-01-28T21:38:39.961Z,-0.44
2023-01-28T21:41:09.242Z,-0.41
2023-01-28T21:43:38.152Z,-0.45
2023-01-28T21:46:06.906Z,-0.46
2023-01-28T21:48:35.248Z,-0.32
2023-01-28T21:51:38.065Z,-0.24
2023-01-28T21:54:08.149Z,-0.21
2023-01-28T21:56:36.438Z,-0.19
2023-01-28T21:59:22.339Z,-0.19
2023-01-28T22:01:50.841Z,-0.22
2023-01-28T22:04:19.160Z,-0.23
2023-01-28T22:06:49.360Z,-0.28
2023-01-28T22:09:17.583Z,-0.35
2023-01-28T22:11:46.256Z,-0.43
2023-01-28T22:14:14.972Z,-0.61
2023-01-28T22:16:43.890Z,-0.68
2023-01-28T22:19:12.328Z,-0.86
2023-01-28T22:21:41.987Z,-1.01
2023-01-28T22:24:13.713Z,-1.08
2023-01-28T22:26:42.807Z,-1.10
2023-01-28T22:29:12.312Z,-1.06
2023-01-28T22:31:40.920Z,-1.09
2023-01-28T22:34:09.615Z,-1.05
2023-01-28T22:36:37.953Z,-1.03
2023-01-28T22:39:07.952Z,-1.12
2023-01-28T22:41:37.556Z,-1.17
2023-01-28T22:44:06.055Z,-1.23
2023-01-28T22:46:35.843Z,-1.29
2023-01-28T22:49:05.269Z,-1.34
2023-01-28T22:51:36.015Z,-1.32
2023-01-28T22:54:04.977Z,-1.36
2023-01-28T22:56:33.535Z,-1.39
2023-01-28T22:59:04.984Z,-1.35
2023-01-28T23:01:33.741Z,-1.31
2023-01-28T23:04:01.964Z,-1.26
2023-01-28T23:06:31.099Z,-1.19
2023-01-28T23:08:59.310Z,-1.17
2023-01-28T23:11:28.173Z,-1.15
2023-01-28T23:14:15.715Z,-1.12
2023-01-28T23:17:02.872Z,-1.10
2023-01-28T23:19:48.793Z,-1.05
2023-01-28T23:22:38.660Z,-1.10
2023-01-28T23:25:07.578Z,-1.12
2023-01-28T23:27:35.832Z,-1.14
2023-01-28T23:30:05.805Z,-1.14
2023-01-28T23:32:35.516Z,-1.18
2023-01-28T23:35:03.979Z,-1.19
2023-01-28T23:37:32.246Z,-1.19
2023-01-28T23:40:00.671Z,-1.05
2023-01-28T23:42:28.858Z,-1.02
2023-01-28T23:44:57.087Z,-0.99
2023-01-28T23:47:25.746Z,-1.02
2023-01-28T23:49:55.367Z,-1.02
2023-01-28T23:52:24.286Z,-1.14
2023-01-28T23:54:52.476Z,-1.34
2023-01-28T23:57:20.687Z,-1.59
2023-01-28T23:59:48.965Z,-1.64
